createdAt,value
2023-02-07T00:01:23.978Z,-3.74
2023-02-07T00:03:51.430Z,-3.73
2023-02-07T00:06:40.968Z,-3.79
2023-02-07T00:09:10.705Z,-3.72
2023-02-07T00:11:40.693Z,-3.61
2023-02-07T00:14:10.065Z,-3.71
2023-02-07T00:16:37.054Z,-3.78
2023-02-07T00:19:04.045Z,-3.85
2023-02-07T00:21:31.064Z,-3.87
2023-02-07T00:23:58.072Z,-3.78
2023-02-07T00:26:27.066Z,-3.83
2023-02-07T00:28:55.210Z,-3.92
2023-02-07T00:31:29.686Z,-4.02
2023-02-07T00:34:00.771Z,-4.04
2023-02-07T00:36:29.850Z,-4.13
2023-02-07T00:39:02.510Z,-4.07
2023-02-07T00:41:30.068Z,-4.06
2023-02-07T00:43:57.094Z,-4.13
2023-02-07T00:46:24.821Z,-4.21
2023-02-07T00:48:54.245Z,-4.08
2023-02-07T00:51:21.413Z,-4.08
2023-02-07T00:53:48.616Z,-4.16
2023-02-07T00:56:15.700Z,-4.30
2023-02-07T00:58:42.458Z,-4.34
2023-02-07T01:01:09.331Z,-4.39
2023-02-07T01:03:36.085Z,-4.39
2023-02-07T01:06:02.866Z,-4.35
2023-02-07T01:08:29.630Z,-4.44
2023-02-07T01:10:57.701Z,-4.37
2023-02-07T01:13:24.354Z,-4.36
2023-02-07T01:15:51.048Z,-4.37
2023-02-07T01:18:17.880Z,-4.37
2023-02-07T01:20:45.341Z,-4.37
2023-02-07T01:23:13.602Z,-4.44
2023-02-07T01:25:41.592Z,-4.40
2023-02-07T01:28:08.338Z,-4.47
2023-02-07T01:30:35.115Z,-4.59
2023-02-07T01:33:02.459Z,-4.65
2023-02-07T01:35:29.340Z,-4.81
2023-02-07T01:37:58.424Z,-4.90
2023-02-07T01:40:27.018Z,-4.90
2023-02-07T01:42:53.685Z,-4.93
2023-02-07T01:45:36.614Z,-5.00
2023-02-07T01:48:11.560Z,-5.01
2023-02-07T01:50:41.503Z,-5.01
2023-02-07T01:53:10.432Z,-5.01
2023-02-07T01:55:41.213Z,-4.96
2023-02-07T01:58:08.924Z,-5.02
2023-02-07T02:00:36.884Z,-5.08
2023-02-07T02:03:04.936Z,-5.12
2023-02-07T02:05:33.621Z,-5.27
2023-02-07T02:08:00.409Z,-5.29
2023-02-07T02:10:52.012Z,-5.32
2023-02-07T02:13:28.265Z,-5.29
2023-02-07T02:16:07.061Z,-5.34
2023-02-07T02:18:45.232Z,-5.36
2023-02-07T02:21:44.779Z,-5.22
2023-02-07T02:24:15.906Z,-5.26
2023-02-07T02:27:06.630Z,-5.30
2023-02-07T02:30:19.726Z,-5.36
2023-02-07T02:32:58.583Z,-5.30
2023-02-07T02:36:10.849Z,-5.36
2023-02-07T02:38:51.770Z,-5.46
2023-02-07T02:41:23.942Z,-5.55
2023-02-07T02:44:03.994Z,-5.54
2023-02-07T02:46:37.423Z,-5.59
2023-02-07T02:49:07.868Z,-5.70
2023-02-07T02:51:34.570Z,-5.65
2023-02-07T02:54:01.660Z,-5.65
2023-02-07T02:56:57.821Z,-5.74
2023-02-07T02:59:52.714Z,-5.78
2023-02-07T03:02:22.550Z,-5.81
2023-02-07T03:05:14.280Z,-5.85
2023-02-07T03:08:25.530Z,-5.97
2023-02-07T03:11:07.934Z,-5.92
2023-02-07T03:13:56.424Z,-5.89
2023-02-07T03:16:29.494Z,-5.93
2023-02-07T03:19:24.957Z,-6.01
2023-02-07T03:22:13.881Z,-6.07
2023-02-07T03:24:51.076Z,-6.09
2023-02-07T03:27:21.093Z,-6.15
2023-02-07T03:29:57.717Z,-6.13
2023-02-07T03:32:29.777Z,-6.19
2023-02-07T03:35:07.893Z,-6.18
2023-02-07T03:37:51.308Z,-6.17
2023-02-07T03:40:18.872Z,-6.19
2023-02-07T03:43:32.326Z,-6.19
2023-02-07T03:45:59.043Z,-6.29
2023-02-07T03:48:25.732Z,-6.30
2023-02-07T03:50:53.012Z,-6.31
2023-02-07T03:53:20.587Z,-6.36
2023-02-07T03:55:47.508Z,-6.33
2023-02-07T03:58:14.550Z,-6.36
2023-02-07T04:00:41.302Z,-6.35
2023-02-07T04:03:08.013Z,-6.39
2023-02-07T04:05:34.753Z,-6.35
2023-02-07T04:08:01.491Z,-6.44
2023-02-07T04:10:28.218Z,-6.39
2023-02-07T04:12:54.948Z,-6.39
2023-02-07T04:15:21.942Z,-6.53
2023-02-07T04:17:48.591Z,-6.42
2023-02-07T04:20:15.296Z,-6.46
2023-02-07T04:22:41.963Z,-6.61
2023-02-07T04:25:08.714Z,-6.61
2023-02-07T04:27:35.370Z,-6.66
2023-02-07T04:30:02.059Z,-6.68
2023-02-07T04:32:28.762Z,-6.76
2023-02-07T04:34:55.452Z,-6.75
2023-02-07T04:37:22.144Z,-6.80
2023-02-07T04:39:48.800Z,-6.80
2023-02-07T04:42:15.467Z,-6.79
2023-02-07T04:44:42.084Z,-6.82
2023-02-07T04:47:08.743Z,-6.86
2023-02-07T04:49:35.484Z,-6.98
2023-02-07T04:52:02.310Z,-6.91
2023-02-07T04:54:28.937Z,-6.97
2023-02-07T04:56:55.687Z,-7.06
2023-02-07T04:59:22.369Z,-6.99
2023-02-07T05:01:49.014Z,-7.03
2023-02-07T05:04:15.733Z,-7.05
2023-02-07T05:06:42.366Z,-7.08
2023-02-07T05:09:08.978Z,-6.98
2023-02-07T05:11:35.820Z,-7.06
2023-02-07T05:14:02.452Z,-7.08
2023-02-07T05:16:29.160Z,-7.07
2023-02-07T05:18:55.872Z,-7.02
2023-02-07T05:21:22.716Z,-7.12
2023-02-07T05:23:50.060Z,-7.05
2023-02-07T05:26:17.425Z,-7.04
2023-02-07T05:28:44.925Z,-7.04
2023-02-07T05:31:11.733Z,-7.16
2023-02-07T05:33:38.404Z,-7.04
2023-02-07T05:36:05.548Z,-7.04
2023-02-07T05:38:32.256Z,-7.01
2023-02-07T05:40:58.999Z,-7.07
2023-02-07T05:43:25.639Z,-7.01
2023-02-07T05:45:52.377Z,-7.08
2023-02-07T05:48:19.061Z,-7.11
2023-02-07T05:50:45.734Z,-7.03
2023-02-07T05:53:13.071Z,-7.02
2023-02-07T05:55:40.927Z,-7.08
2023-02-07T05:58:07.760Z,-7.05
2023-02-07T06:00:34.421Z,-7.10
2023-02-07T06:03:01.013Z,-7.03
2023-02-07T06:05:31.843Z,-7.03
2023-02-07T06:07:58.987Z,-7.10
2023-02-07T06:10:25.719Z,-7.06
2023-02-07T06:12:52.512Z,-7.18
2023-02-07T06:15:19.208Z,-7.09
2023-02-07T06:17:45.866Z,-7.11
2023-02-07T06:20:12.768Z,-7.19
2023-02-07T06:22:39.561Z,-7.24
2023-02-07T06:25:10.611Z,-7.21
2023-02-07T06:27:39.780Z,-7.27
2023-02-07T06:30:08.026Z,-7.24
2023-02-07T06:32:34.870Z,-7.22
2023-02-07T06:35:01.583Z,-7.33
2023-02-07T06:37:28.247Z,-7.35
2023-02-07T06:39:54.918Z,-7.49
2023-02-07T06:42:21.773Z,-7.35
2023-02-07T06:44:48.425Z,-7.31
2023-02-07T06:47:16.395Z,-7.23
2023-02-07T06:49:43.148Z,-7.20
2023-02-07T06:52:09.779Z,-7.19
2023-02-07T06:54:36.474Z,-7.15
2023-02-07T06:57:03.413Z,-7.13
2023-02-07T06:59:30.088Z,-7.20
2023-02-07T07:01:56.935Z,-7.13
2023-02-07T07:04:23.572Z,-7.11
2023-02-07T07:06:50.224Z,-7.16
2023-02-07T07:09:16.948Z,-7.16
2023-02-07T07:11:44.400Z,-7.17
2023-02-07T07:14:11.894Z,-7.16
2023-02-07T07:16:40.877Z,-7.10
2023-02-07T07:19:07.509Z,-7.06
2023-02-07T07:21:34.200Z,-7.00
2023-02-07T07:24:00.818Z,-6.78
2023-02-07T07:26:36.567Z,-6.47
2023-02-07T07:29:09.594Z,-6.06
2023-02-07T07:31:36.292Z,-5.61
2023-02-07T07:34:02.920Z,-5.36
2023-02-07T07:36:29.655Z,-5.12
2023-02-07T07:38:56.388Z,-5.00
2023-02-07T07:41:23.767Z,-4.70
2023-02-07T07:43:50.533Z,-4.38
2023-02-07T07:46:17.192Z,-3.99
2023-02-07T07:48:43.849Z,-4.00
2023-02-07T07:51:10.508Z,-4.25
2023-02-07T07:53:37.128Z,-4.43
2023-02-07T07:56:04.171Z,-4.43
2023-02-07T07:58:31.461Z,-4.41
2023-02-07T08:00:58.126Z,-4.40
2023-02-07T08:03:24.817Z,-4.42
2023-02-07T08:05:51.795Z,-3.93
2023-02-07T08:08:19.956Z,-4.07
2023-02-07T08:10:47.199Z,-4.03
2023-02-07T08:13:13.894Z,-3.97
2023-02-07T08:15:40.609Z,-4.10
2023-02-07T08:18:07.302Z,-3.89
2023-02-07T08:20:35.157Z,-3.69
2023-02-07T08:23:02.241Z,-3.48
2023-02-07T08:25:29.161Z,-3.39
2023-02-07T08:27:55.901Z,-3.36
2023-02-07T08:30:22.694Z,-3.14
2023-02-07T08:32:51.734Z,-2.92
2023-02-07T08:35:18.897Z,-2.63
2023-02-07T08:37:45.613Z,-2.26
2023-02-07T08:40:13.157Z,-1.91
2023-02-07T08:42:40.064Z,-2.17
2023-02-07T08:45:07.184Z,-2.43
2023-02-07T08:47:33.936Z,-2.43
2023-02-07T08:50:00.553Z,-2.53
2023-02-07T08:52:28.962Z,-2.43
2023-02-07T08:54:56.441Z,-2.31
2023-02-07T08:57:24.531Z,-1.88
2023-02-07T08:59:52.469Z,-1.73
2023-02-07T09:02:19.206Z,-2.11
2023-02-07T09:04:45.918Z,-2.14
2023-02-07T09:07:12.695Z,-2.36
2023-02-07T09:09:40.407Z,-2.35
2023-02-07T09:12:08.494Z,-2.52
2023-02-07T09:14:35.556Z,-2.24
2023-02-07T09:17:02.672Z,-1.84
2023-02-07T09:19:29.331Z,-1.07
2023-02-07T09:21:55.989Z,-1.35
2023-02-07T09:24:22.782Z,-1.35
2023-02-07T09:26:49.880Z,-1.47
2023-02-07T09:29:17.129Z,-1.46
2023-02-07T09:31:44.013Z,-1.38
2023-02-07T09:34:10.862Z,-1.54
2023-02-07T09:36:37.621Z,-1.47
2023-02-07T09:39:05.447Z,-1.41
2023-02-07T09:41:42.609Z,-1.04
2023-02-07T09:44:25.894Z,-0.96
2023-02-07T09:47:02.119Z,-1.22
2023-02-07T09:49:47.705Z,-1.39
2023-02-07T09:52:29.800Z,-1.65
2023-02-07T09:54:58.392Z,-1.43
2023-02-07T09:57:28.152Z,-0.94
2023-02-07T10:00:20.637Z,-1.09
2023-02-07T10:03:21.329Z,-1.36
2023-02-07T10:06:01.476Z,-1.36
2023-02-07T10:08:39.749Z,-1.35
2023-02-07T10:11:35.568Z,-1.11
2023-02-07T10:14:27.252Z,-0.96
2023-02-07T10:17:35.146Z,-1.14
2023-02-07T10:20:26.641Z,-0.95
2023-02-07T10:23:02.804Z,-1.24
2023-02-07T10:25:38.439Z,-0.94
2023-02-07T10:28:14.329Z,-0.80
2023-02-07T10:30:49.691Z,-0.87
2023-02-07T10:33:24.030Z,-0.85
2023-02-07T10:35:52.246Z,-0.99
2023-02-07T10:38:38.089Z,-0.94
2023-02-07T10:41:13.782Z,-1.13
2023-02-07T10:43:43.789Z,-1.19
2023-02-07T10:46:13.508Z,-1.20
2023-02-07T10:48:40.229Z,-1.00
2023-02-07T10:51:29.890Z,-0.91
2023-02-07T10:54:11.317Z,-0.50
2023-02-07T10:56:50.519Z,0.04
2023-02-07T10:59:45.633Z,-0.17
2023-02-07T11:02:31.777Z,-0.10
2023-02-07T11:05:01.014Z,-0.02
2023-02-07T11:07:32.503Z,-0.14
2023-02-07T11:10:21.803Z,-0.08
2023-02-07T11:12:53.502Z,0.16
2023-02-07T11:15:26.072Z,0.10
2023-02-07T11:17:56.934Z,-0.18
2023-02-07T11:20:39.237Z,-0.55
2023-02-07T11:23:11.813Z,-0.34
2023-02-07T11:25:44.274Z,-0.25
2023-02-07T11:28:21.508Z,-0.42
2023-02-07T11:30:56.470Z,-0.51
2023-02-07T11:33:27.043Z,-0.45
2023-02-07T11:36:18.910Z,-0.48
2023-02-07T11:38:55.881Z,-0.20
2023-02-07T11:41:30.803Z,0.13
2023-02-07T11:43:57.350Z,0.20
2023-02-07T11:46:46.417Z,0.03
2023-02-07T11:49:37.991Z,0.10
2023-02-07T11:52:05.188Z,0.29
2023-02-07T11:54:32.620Z,0.33
2023-02-07T11:57:14.668Z,0.41
2023-02-07T11:59:49.988Z,0.22
2023-02-07T12:02:24.300Z,0.16
2023-02-07T12:04:52.871Z,0.27
2023-02-07T12:07:27.747Z,0.11
2023-02-07T12:10:01.760Z,0.16
2023-02-07T12:12:43.663Z,0.45
2023-02-07T12:15:25.640Z,0.80
2023-02-07T12:18:36.457Z,0.92
2023-02-07T12:21:22.519Z,0.39
2023-02-07T12:24:00.410Z,0.42
2023-02-07T12:26:32.734Z,0.26
2023-02-07T12:29:17.823Z,0.11
2023-02-07T12:32:07.602Z,0.12
2023-02-07T12:35:12.000Z,0.21
2023-02-07T12:38:06.826Z,0.47
2023-02-07T12:40:38.285Z,0.52
2023-02-07T12:43:38.103Z,0.62
2023-02-07T12:46:38.395Z,0.34
2023-02-07T12:49:22.786Z,0.41
2023-02-07T12:52:18.576Z,0.52
2023-02-07T12:55:01.856Z,0.60
2023-02-07T12:57:37.887Z,0.80
2023-02-07T13:00:28.845Z,0.68
2023-02-07T13:03:26.027Z,0.76
2023-02-07T13:06:31.012Z,0.89
2023-02-07T13:09:23.683Z,0.88
2023-02-07T13:11:58.930Z,0.77
2023-02-07T13:14:35.568Z,0.97
2023-02-07T13:17:14.438Z,0.92
2023-02-07T13:20:11.208Z,0.71
2023-02-07T13:22:50.485Z,0.71
2023-02-07T13:25:23.395Z,0.74
2023-02-07T13:27:54.719Z,0.93
2023-02-07T13:30:22.303Z,1.14
2023-02-07T13:32:50.776Z,1.30
2023-02-07T13:35:25.012Z,1.73
2023-02-07T13:38:18.951Z,2.15
2023-02-07T13:41:06.016Z,2.20
2023-02-07T13:44:01.674Z,2.39
2023-02-07T13:47:11.653Z,2.48
2023-02-07T13:49:53.437Z,2.52
2023-02-07T13:52:34.806Z,2.64
2023-02-07T13:55:20.524Z,2.68
2023-02-07T13:58:05.978Z,2.07
2023-02-07T14:00:53.515Z,1.98
2023-02-07T14:03:22.723Z,1.64
2023-02-07T14:05:49.838Z,1.65
2023-02-07T14:08:16.622Z,1.76
2023-02-07T14:10:47.857Z,1.75
2023-02-07T14:13:26.827Z,1.69
2023-02-07T14:15:56.675Z,1.65
2023-02-07T14:18:44.783Z,1.70
2023-02-07T14:21:21.086Z,1.66
2023-02-07T14:23:53.925Z,1.60
2023-02-07T14:26:36.701Z,1.50
2023-02-07T14:29:24.576Z,1.16
2023-02-07T14:31:55.725Z,0.80
2023-02-07T14:34:28.509Z,0.98
2023-02-07T14:36:55.225Z,0.77
2023-02-07T14:39:29.997Z,0.65
2023-02-07T14:42:11.360Z,0.78
2023-02-07T14:44:41.600Z,0.71
2023-02-07T14:47:19.890Z,0.44
2023-02-07T14:49:50.522Z,0.36
2023-02-07T14:52:24.425Z,0.24
2023-02-07T14:54:56.016Z,0.08
2023-02-07T14:57:43.273Z,0.00
2023-02-07T15:00:12.930Z,-0.09
2023-02-07T15:02:43.557Z,-0.24
2023-02-07T15:05:13.465Z,-0.15
2023-02-07T15:07:40.802Z,-0.04
2023-02-07T15:10:14.702Z,-0.12
2023-02-07T15:12:45.782Z,-0.10
2023-02-07T15:15:25.893Z,-0.10
2023-02-07T15:17:55.376Z,-0.22
2023-02-07T15:20:34.363Z,-0.11
2023-02-07T15:23:04.372Z,0.04
2023-02-07T15:25:32.795Z,0.04
2023-02-07T15:28:01.265Z,-0.05
2023-02-07T15:30:28.630Z,-0.01
2023-02-07T15:32:55.348Z,-0.06
2023-02-07T15:35:36.791Z,-0.18
2023-02-07T15:38:16.063Z,-0.27
2023-02-07T15:40:42.886Z,-0.29
2023-02-07T15:43:29.563Z,-0.32
2023-02-07T15:46:09.623Z,-0.50
2023-02-07T15:48:55.017Z,-0.65
2023-02-07T15:51:26.506Z,-0.64
2023-02-07T15:53:57.496Z,-0.74
2023-02-07T15:56:25.043Z,-0.92
2023-02-07T15:58:53.998Z,-1.06
2023-02-07T16:01:26.325Z,-1.22
2023-02-07T16:03:56.520Z,-1.24
2023-02-07T16:06:26.046Z,-1.30
2023-02-07T16:08:55.158Z,-1.37
2023-02-07T16:11:27.806Z,-1.36
2023-02-07T16:13:54.451Z,-1.43
2023-02-07T16:16:26.493Z,-1.58
2023-02-07T16:19:08.089Z,-1.57
2023-02-07T16:21:36.721Z,-1.57
2023-02-07T16:24:13.793Z,-1.68
2023-02-07T16:26:40.947Z,-1.75
2023-02-07T16:29:08.552Z,-1.84
2023-02-07T16:31:35.622Z,-1.95
2023-02-07T16:34:02.328Z,-1.97
2023-02-07T16:36:29.284Z,-2.14
2023-02-07T16:38:55.950Z,-2.21
2023-02-07T16:41:32.378Z,-2.32
2023-02-07T16:44:06.652Z,-2.32
2023-02-07T16:46:34.219Z,-2.39
2023-02-07T16:49:01.415Z,-2.32
2023-02-07T16:51:28.346Z,-2.28
2023-02-07T16:53:55.053Z,-2.36
2023-02-07T16:56:26.499Z,-2.39
2023-02-07T16:58:53.307Z,-2.48
2023-02-07T17:01:21.624Z,-2.63
2023-02-07T17:03:48.784Z,-2.73
2023-02-07T17:06:20.570Z,-2.92
2023-02-07T17:08:48.386Z,-2.92
2023-02-07T17:11:20.726Z,-3.14
2023-02-07T17:13:47.535Z,-3.27
2023-02-07T17:16:14.294Z,-3.21
2023-02-07T17:18:41.230Z,-3.14
2023-02-07T17:21:13.672Z,-3.25
2023-02-07T17:23:40.373Z,-3.16
2023-02-07T17:26:25.164Z,-3.15
2023-02-07T17:28:52.692Z,-3.14
2023-02-07T17:31:19.522Z,-3.23
2023-02-07T17:33:46.212Z,-3.26
2023-02-07T17:36:14.523Z,-3.23
2023-02-07T17:38:42.572Z,-3.25
2023-02-07T17:41:11.700Z,-3.35
2023-02-07T17:43:41.216Z,-3.35
2023-02-07T17:46:20.161Z,-3.26
2023-02-07T17:48:49.143Z,-3.17
2023-02-07T17:51:17.051Z,-3.23
2023-02-07T17:53:44.551Z,-3.32
2023-02-07T17:56:30.767Z,-3.32
2023-02-07T17:59:02.920Z,-3.35
2023-02-07T18:01:33.926Z,-3.35
2023-02-07T18:04:02.461Z,-3.42
2023-02-07T18:06:30.387Z,-3.34
2023-02-07T18:09:00.989Z,-3.37
2023-02-07T18:11:28.173Z,-3.41
2023-02-07T18:13:57.136Z,-3.56
2023-02-07T18:16:26.338Z,-3.68
2023-02-07T18:18:55.923Z,-3.78
2023-02-07T18:21:22.696Z,-3.86
2023-02-07T18:23:49.661Z,-3.84
2023-02-07T18:26:16.700Z,-3.85
2023-02-07T18:28:43.915Z,-3.74
2023-02-07T18:31:12.353Z,-3.75
2023-02-07T18:33:39.151Z,-3.62
2023-02-07T18:36:06.633Z,-3.60
2023-02-07T18:38:33.309Z,-3.56
2023-02-07T18:40:59.896Z,-3.52
2023-02-07T18:43:26.582Z,-3.56
2023-02-07T18:45:53.265Z,-3.53
2023-02-07T18:48:19.933Z,-3.57
2023-02-07T18:50:48.147Z,-3.51
2023-02-07T18:53:14.861Z,-3.45
2023-02-07T18:55:42.416Z,-3.41
2023-02-07T18:58:09.158Z,-3.40
2023-02-07T19:00:35.761Z,-3.50
2023-02-07T19:03:02.414Z,-3.62
2023-02-07T19:05:29.097Z,-3.63
2023-02-07T19:07:56.279Z,-3.62
2023-02-07T19:10:22.970Z,-3.70
2023-02-07T19:12:49.591Z,-3.76
2023-02-07T19:15:16.367Z,-3.82
2023-02-07T19:17:43.053Z,-3.83
2023-02-07T19:20:10.177Z,-3.86
2023-02-07T19:22:37.658Z,-3.85
2023-02-07T19:25:05.718Z,-3.78
2023-02-07T19:27:32.613Z,-3.82
2023-02-07T19:29:59.547Z,-3.86
2023-02-07T19:32:26.253Z,-3.70
2023-02-07T19:34:52.969Z,-3.74
2023-02-07T19:37:19.666Z,-3.66
2023-02-07T19:39:46.536Z,-3.70
2023-02-07T19:42:13.361Z,-3.62
2023-02-07T19:44:39.989Z,-3.61
2023-02-07T19:47:06.729Z,-3.61
2023-02-07T19:49:33.436Z,-3.59
2023-02-07T19:52:00.151Z,-3.62
2023-02-07T19:54:26.762Z,-3.63
2023-02-07T19:56:53.382Z,-3.58
2023-02-07T19:59:20.062Z,-3.52
2023-02-07T20:01:46.745Z,-3.60
2023-02-07T20:04:13.565Z,-3.62
2023-02-07T20:06:40.412Z,-3.57
2023-02-07T20:09:07.914Z,-3.50
2023-02-07T20:11:35.210Z,-3.59
2023-02-07T20:14:06.921Z,-3.61
2023-02-07T20:16:36.758Z,-3.62
2023-02-07T20:19:06.714Z,-3.63
2023-02-07T20:21:35.736Z,-3.59
2023-02-07T20:24:02.628Z,-3.65
2023-02-07T20:26:32.337Z,-3.71
2023-02-07T20:29:00.871Z,-3.74
2023-02-07T20:31:29.205Z,-3.75
2023-02-07T20:33:57.621Z,-3.78
2023-02-07T20:36:25.783Z,-3.73
2023-02-07T20:38:53.180Z,-3.69
2023-02-07T20:41:29.280Z,-3.69
2023-02-07T20:44:05.237Z,-3.70
2023-02-07T20:46:34.309Z,-3.74
2023-02-07T20:49:03.593Z,-3.75
2023-02-07T20:51:30.770Z,-3.75
2023-02-07T20:53:59.290Z,-3.78
2023-02-07T20:56:27.301Z,-3.85
2023-02-07T20:58:58.078Z,-3.83
2023-02-07T21:01:27.372Z,-3.90
2023-02-07T21:03:56.243Z,-3.93
2023-02-07T21:06:24.122Z,-3.89
2023-02-07T21:08:55.344Z,-3.93
2023-02-07T21:11:22.158Z,-4.02
2023-02-07T21:13:53.680Z,-4.01
2023-02-07T21:16:21.226Z,-4.02
2023-02-07T21:18:48.370Z,-4.02
2023-02-07T21:21:15.918Z,-3.95
2023-02-07T21:23:42.813Z,-3.98
2023-02-07T21:26:13.825Z,-4.02
2023-02-07T21:28:40.923Z,-4.03
2023-02-07T21:31:14.677Z,-4.03
2023-02-07T21:33:41.393Z,-4.03
2023-02-07T21:36:11.093Z,-4.09
2023-02-07T21:38:39.612Z,-4.18
2023-02-07T21:41:08.633Z,-4.19
2023-02-07T21:43:36.095Z,-4.13
2023-02-07T21:46:09.049Z,-4.17
2023-02-07T21:48:37.075Z,-4.12
2023-02-07T21:51:13.769Z,-4.14
2023-02-07T21:53:40.603Z,-4.13
2023-02-07T21:56:11.503Z,-4.12
2023-02-07T21:58:38.891Z,-4.21
2023-02-07T22:01:08.297Z,-4.19
2023-02-07T22:03:36.726Z,-4.20
2023-02-07T22:06:05.000Z,-4.19
2023-02-07T22:08:32.410Z,-4.24
2023-02-07T22:11:05.918Z,-4.25
2023-02-07T22:13:33.454Z,-4.27
2023-02-07T22:16:00.475Z,-4.32
2023-02-07T22:18:27.503Z,-4.30
2023-02-07T22:20:54.368Z,-4.27
2023-02-07T22:23:21.141Z,-4.32
2023-02-07T22:25:47.745Z,-4.30
2023-02-07T22:28:14.492Z,-4.32
2023-02-07T22:30:41.594Z,-4.34
2023-02-07T22:33:10.006Z,-4.36
2023-02-07T22:35:38.450Z,-4.39
2023-02-07T22:38:05.335Z,-4.41
2023-02-07T22:40:36.553Z,-4.39
2023-02-07T22:43:06.316Z,-4.38
2023-02-07T22:45:35.859Z,-4.44
2023-02-07T22:48:03.460Z,-4.50
2023-02-07T22:50:30.062Z,-4.62
2023-02-07T22:52:57.460Z,-4.51
2023-02-07T22:55:24.160Z,-4.58
2023-02-07T22:57:51.691Z,-4.55
2023-02-07T23:00:19.912Z,-4.59
2023-02-07T23:02:46.775Z,-4.64
2023-02-07T23:05:13.464Z,-4.72
2023-02-07T23:07:40.383Z,-4.67
2023-02-07T23:10:08.446Z,-4.62
2023-02-07T23:12:35.324Z,-4.70
2023-02-07T23:15:02.830Z,-4.74
2023-02-07T23:17:29.502Z,-4.72
2023-02-07T23:19:56.647Z,-4.71
2023-02-07T23:22:23.414Z,-4.70
2023-02-07T23:24:50.409Z,-4.72
2023-02-07T23:27:17.169Z,-4.70
2023-02-07T23:29:44.091Z,-4.72
2023-02-07T23:32:10.706Z,-4.70
2023-02-07T23:34:37.302Z,-4.81
2023-02-07T23:37:04.130Z,-4.83
2023-02-07T23:39:31.109Z,-4.80
2023-02-07T23:41:58.391Z,-4.80
2023-02-07T23:44:25.290Z,-4.82
2023-02-07T23:46:52.421Z,-4.86
2023-02-07T23:49:19.277Z,-4.94
2023-02-07T23:51:45.904Z,-4.94
2023-02-07T23:54:13.167Z,-4.82
2023-02-07T23:56:39.860Z,-4.90
2023-02-07T23:59:06.885Z,-4.90
